Time;durP1;ratioP1;P1;durP2;ratioP2;P2;SDS_P1;SDS_P2;PMS_P1;PMS_P2;Temp;Humidity;BMP_temperature;BMP_pressure;BME280_temperature;BME280_humidity;BME280_pressure;Samples;Min_cycle;Max_cycle;Signal;HPM_P1;HPM_P2
2024/03/24 00:01:02;;;;;;;;;;;;;;;11.25;100.00;98995.22;4918529;29;19919;-90
2024/03/24 00:03:27;;;;;;;;;;;;;;;11.27;100.00;98988.03;4934884;29;19970;-87
2024/03/24 00:05:52;;;;;;;;;;;;;;;11.27;100.00;98985.38;4934400;29;20350;-90
2024/03/24 00:08:17;;;;;;;;;;;;;;;11.30;100.00;98977.22;4935435;29;19966;-88
2024/03/24 00:10:43;;;;;;;;;;;;;;;11.29;100.00;98990.59;4935972;29;19919;-83
2024/03/24 00:13:08;;;;;;;;;;;;;;;11.27;100.00;98990.66;4935758;29;20036;-92
2024/03/24 00:15:33;;;;;;;;;;;;;;;11.28;100.00;98989.75;4918371;29;19930;-91
2024/03/24 00:18:01;;;;;;;;;;;;;;;11.26;100.00;98986.28;4919016;29;19938;-87
2024/03/24 00:20:26;;;;;;;;;;;;;;;11.27;100.00;98994.16;4935289;29;19930;-88
2024/03/24 00:22:52;;;;;;;;;;;;;;;11.27;100.00;98994.16;4935324;29;19930;-88
2024/03/24 00:25:17;;;;;;;;;;;;;;;11.27;100.00;98988.03;4917538;29;19931;-88
2024/03/24 00:27:43;;;;;;;;;;;;;;;11.28;100.00;98989.75;4935472;29;19977;-84
2024/03/24 00:30:09;;;;;;;;;;;;;;;11.29;100.00;98978.16;4934433;29;20415;-86
2024/03/24 00:32:34;;;;;;;;;;;;;;;11.32;100.00;98988.59;4918397;29;19919;-92
2024/03/24 00:34:59;;;;;;;;;;;;;;;11.32;100.00;98985.09;4933273;29;20385;-90
2024/03/24 00:37:24;;;;;;;;;;;;;;;11.33;100.00;98986.78;4913172;29;20387;-87
2024/03/24 00:39:52;;;;;;;;;;;;;;;11.33;100.00;98987.66;4915590;29;19974;-84
2024/03/24 00:42:17;;;;;;;;;;;;;;;11.34;100.00;98976.09;4914938;29;19926;-87
2024/03/24 00:44:43;;;;;;;;;;;;;;;11.31;100.00;98967.47;4915871;29;19919;-91
2024/03/24 00:47:08;;;;;;;;;;;;;;;11.32;100.00;98962.06;4915672;29;19923;-90
2024/03/24 00:49:33;;;;;;;;;;;;;;;11.31;100.00;98955.06;4914140;29;19924;-85
2024/03/24 00:51:58;;;;;;;;;;;;;;;11.32;100.00;98955.94;4913678;29;19934;-88
2024/03/24 00:54:24;;;;;;;;;;;;;;;11.35;100.00;98951.28;4914560;29;20383;-84
2024/03/24 00:56:49;;;;;;;;;;;;;;;11.36;100.00;98955.66;4916450;29;19923;-83
2024/03/24 00:59:15;;;;;;;;;;;;;;;11.35;100.00;98953.09;4915034;29;19923;-84
2024/03/24 01:01:40;;;;;;;;;;;;;;;11.33;100.00;98950.53;4915032;29;19927;-82
2024/03/24 01:04:05;;;;;;;;;;;;;;;11.36;100.00;98946.81;4915952;29;19971;-86
2024/03/24 01:06:31;;;;;;;;;;;;;;;11.37;100.00;98951.19;4914965;29;20397;-86
2024/03/24 01:08:57;;;;;;;;;;;;;;;11.34;100.00;98941.63;4915523;29;20412;-86
2024/03/24 01:11:22;;;;;;;;;;;;;;;11.35;100.00;98940.69;4914097;29;19926;-85
2024/03/24 01:13:47;;;;;;;;;;;;;;;11.36;100.00;98933.56;4915090;29;19920;-92
2024/03/24 01:16:14;;;;;;;;;;;;;;;11.35;100.00;98935.38;4915338;29;20009;-83
2024/03/24 01:18:39;;;;;;;;;;;;;;;11.38;100.00;98932.53;4914091;29;20014;-86
2024/03/24 01:21:07;;;;;;;;;;;;;;;11.40;100.00;98925.34;4914675;29;20006;-89
2024/03/24 01:23:32;;;;;;;;;;;;;;;11.39;100.00;98931.59;4915966;29;19929;-83
2024/03/24 01:25:57;;;;;;;;;;;;;;;11.39;100.00;98923.66;4915926;29;19919;-84
2024/03/24 01:28:22;;;;;;;;;;;;;;;11.39;100.00;98926.31;4916362;29;19923;-85
2024/03/24 01:30:48;;;;;;;;;;;;;;;11.39;100.00;98926.31;4916029;29;19919;-83
2024/03/24 01:33:13;;;;;;;;;;;;;;;11.39;100.00;98918.34;4913844;29;19930;-82
2024/03/24 01:35:44;;;;;;;;;;;;;;;11.38;100.00;98918.44;4914751;29;20383;-82
2024/03/24 01:38:10;;;;;;;;;;;;;;;11.38;100.00;98907.81;4931620;29;19923;-82
2024/03/24 01:40:35;;;;;;;;;;;;;;;11.42;100.00;98906.69;4934615;29;19933;-81
2024/03/24 01:43:00;;;;;;;;;;;;;;;11.41;100.00;98905.84;4935081;29;20385;-81
2024/03/24 01:45:25;;;;;;;;;;;;;;;11.44;100.00;98913.63;4934846;29;19933;-83
2024/03/24 01:47:51;;;;;;;;;;;;;;;11.41;100.00;98899.69;4933911;29;19969;-85
2024/03/24 01:50:16;;;;;;;;;;;;;;;11.41;100.00;98899.69;4934131;29;19927;-84
2024/03/24 01:52:43;;;;;;;;;;;;;;;11.43;100.00;98903.94;4933051;29;19978;-84
2024/03/24 01:55:08;;;;;;;;;;;;;;;11.43;100.00;98900.44;4933623;29;19946;-80
2024/03/24 01:57:34;;;;;;;;;;;;;;;11.43;100.00;98892.47;4933389;29;19927;-83
2024/03/24 08:19:53;;;;;;;;;;;;;;;11.91;100.00;98866.50;4930975;29;20468;-81
2024/03/24 08:22:19;;;;;;;;;;;;;;;11.92;100.00;98854.97;4936504;29;19978;-80
2024/03/24 08:24:44;;;;;;;;;;;;;;;11.97;100.00;98849.38;4936497;29;19918;-80
2024/03/24 08:27:10;;;;;;;;;;;;;;;11.95;100.00;98854.78;4936011;29;19925;-82
2024/03/24 08:29:35;;;;;;;;;;;;;;;11.93;100.00;98864.63;4936517;29;20345;-82
2024/03/24 08:32:01;;;;;;;;;;;;;;;12.00;100.00;98862.47;4935237;29;19918;-81
2024/03/24 08:34:26;;;;;;;;;;;;;;;11.99;100.00;98852.78;4934779;29;19919;-82
2024/03/24 08:36:51;;;;;;;;;;;;;;;11.97;100.00;98852.03;4918740;29;19965;-84
2024/03/24 08:39:16;;;;;;;;;;;;;;;11.96;100.00;98852.97;4936247;29;19922;-81
2024/03/24 08:41:42;;;;;;;;;;;;;;;11.98;100.00;98859.91;4918945;29;19919;-83
2024/03/24 08:44:07;;;;;;;;;;;;;;;11.96;100.00;98863.59;4935989;29;19974;-83
2024/03/24 08:46:32;;;;;;;;;;;;;;;11.97;100.00;98860.84;4935238;29;19919;-81
2024/03/24 08:48:57;;;;;;;;;;;;;;;12.00;100.00;98867.78;4935404;29;19919;-81
2024/03/24 08:51:23;;;;;;;;;;;;;;;12.00;100.00;98870.44;4936134;29;19919;-83
2024/03/24 08:53:48;;;;;;;;;;;;;;;11.97;100.00;98866.16;4935979;29;19942;-81
2024/03/24 08:56:13;;;;;;;;;;;;;;;12.01;100.00;98866.81;4936146;29;19922;-82
2024/03/24 08:58:38;;;;;;;;;;;;;;;12.03;100.00;98872.03;4934289;29;19926;-81
2024/03/24 09:01:04;;;;;;;;;;;;;;;12.06;100.00;98875.34;4935828;29;19966;-81
2024/03/24 09:03:29;;;;;;;;;;;;;;;12.02;100.00;98879.16;4934284;29;19919;-83
2024/03/24 09:05:54;;;;;;;;;;;;;;;12.03;100.00;98870.25;4935752;29;20097;-79
2024/03/24 09:08:20;;;;;;;;;;;;;;;12.01;100.00;98882.75;4935681;29;19918;-80
2024/03/24 09:10:45;;;;;;;;;;;;;;;12.01;100.00;98880.09;4936056;29;19954;-83
2024/03/24 09:13:10;;;;;;;;;;;;;;;12.03;100.00;98870.25;4935526;29;20322;-83
2024/03/24 09:15:35;;;;;;;;;;;;;;;12.07;100.00;98878.84;4935677;29;19945;-82
2024/03/24 09:18:01;;;;;;;;;;;;;;;12.02;100.00;98876.50;4933872;29;20671;-82
2024/03/24 09:20:26;;;;;;;;;;;;;;;12.04;100.00;98877.22;4918158;29;20318;-82
2024/03/24 09:22:51;;;;;;;;;;;;;;;12.06;100.00;98878.00;4935409;29;19919;-84
2024/03/24 09:25:17;;;;;;;;;;;;;;;12.03;100.00;98870.25;4935351;29;19919;-83
2024/03/24 09:27:45;;;;;;;;;;;;;;;12.04;100.00;98874.59;4918088;29;19922;-83
2024/03/24 09:30:10;;;;;;;;;;;;;;;12.09;100.00;98888.41;4935364;29;20017;-82
2024/03/24 09:32:36;;;;;;;;;;;;;;;12.10;100.00;98891.94;4932405;29;20005;-82
2024/03/24 09:35:01;;;;;;;;;;;;;;;12.09;100.00;98880.44;4935169;29;19919;-82
2024/03/24 09:37:26;;;;;;;;;;;;;;;12.07;100.00;98882.34;4933544;29;19925;-82
2024/03/24 09:39:51;;;;;;;;;;;;;;;12.10;100.00;98881.31;4934493;29;19974;-83
2024/03/24 09:42:18;;;;;;;;;;;;;;;12.10;100.00;98883.97;4935105;29;19919;-81
2024/03/24 09:44:44;;;;;;;;;;;;;;;12.13;100.00;98887.28;4935320;29;19919;-85
2024/03/24 09:47:10;;;;;;;;;;;;;;;12.13;100.00;98889.94;4916355;29;19919;-82
2024/03/24 09:49:36;;;;;;;;;;;;;;;12.16;100.00;98891.56;4934950;29;19946;-81
2024/03/24 09:52:03;;;;;;;;;;;;;;;12.15;100.00;98896.00;4935073;29;19986;-81
2024/03/24 09:54:28;;;;;;;;;;;;;;;12.17;100.00;98895.91;4934549;29;19914;-81
2024/03/24 09:56:54;;;;;;;;;;;;;;;12.14;100.00;98894.31;4934782;29;19918;-84
2024/03/24 09:59:20;;;;;;;;;;;;;;;12.17;100.00;98896.78;4901577;29;19919;-84
2024/03/24 10:01:47;;;;;;;;;;;;;;;12.21;100.00;98899.22;4933502;29;19922;-82
2024/03/24 10:04:13;;;;;;;;;;;;;;;12.18;100.00;98914.38;4934883;29;20005;-82
2024/03/24 10:06:40;;;;;;;;;;;;;;;12.16;100.00;98911.00;4933360;29;20331;-80
2024/03/24 10:09:05;;;;;;;;;;;;;;;12.18;100.00;98919.69;4934702;29;19922;-81
2024/03/24 10:11:45;;;;;;;;;;;;;;;12.18;100.00;98922.34;4935017;29;19919;-82
2024/03/24 10:14:10;;;;;;;;;;;;;;;12.20;100.00;98914.28;4933394;29;20027;-81
2024/03/24 10:16:35;;;;;;;;;;;;;;;12.18;100.00;98922.34;4933913;29;20013;-81
2024/03/24 10:19:10;;;;;;;;;;;;;;;12.22;100.00;98927.47;4934117;29;20503;-82
2024/03/24 10:21:37;;;;;;;;;;;;;;;12.18;100.00;98926.81;4934750;29;20370;-82
2024/03/24 10:24:02;;;;;;;;;;;;;;;12.22;100.00;98923.03;4934831;29;19927;-82
2024/03/24 10:26:29;;;;;;;;;;;;;;;12.15;100.00;98922.53;4934754;29;19926;-81
2024/03/24 10:28:55;;;;;;;;;;;;;;;12.13;100.00;98916.50;4934613;29;19951;-80
2024/03/24 10:31:20;;;;;;;;;;;;;;;12.13;100.00;98910.34;4934677;29;19918;-80
2024/03/24 10:33:45;;;;;;;;;;;;;;;12.18;100.00;98921.50;4933362;29;19926;-81
2024/03/24 10:36:11;;;;;;;;;;;;;;;12.12;100.00;98912.13;4934776;29;20005;-80
2024/03/24 10:38:37;;;;;;;;;;;;;;;12.12;100.00;98912.13;4934774;29;19919;-82
2024/03/24 10:41:06;;;;;;;;;;;;;;;12.14;100.00;98898.75;4934676;29;19929;-85
2024/03/24 10:43:31;;;;;;;;;;;;;;;12.12;100.00;98909.47;4917264;29;19919;-81
2024/03/24 10:45:57;;;;;;;;;;;;;;;12.16;100.00;98892.41;4934624;29;19926;-83
2024/03/24 10:48:32;;;;;;;;;;;;;;;12.12;100.00;98890.88;4933302;29;20035;-80
2024/03/24 10:51:11;;;;;;;;;;;;;;;12.13;100.00;98884.63;4918887;29;19923;-81
2024/03/24 14:05:44;;;;;;;;;;;;;;;12.27;100.00;98808.50;4883500;29;19979;-83
2024/03/24 14:08:09;;;;;;;;;;;;;;;12.28;100.00;98789.81;4877456;29;19927;-81
2024/03/24 14:10:35;;;;;;;;;;;;;;;12.26;100.00;98781.09;4896937;29;19920;-81
2024/03/24 14:13:19;;;;;;;;;;;;;;;12.25;100.00;98778.56;4880203;29;19923;-81
2024/03/24 14:15:55;;;;;;;;;;;;;;;12.23;100.00;98776.00;4896923;29;20382;-81
2024/03/24 14:18:39;;;;;;;;;;;;;;;12.22;100.00;98773.44;4878774;29;19924;-82
2024/03/24 14:21:08;;;;;;;;;;;;;;;12.21;100.00;98772.59;4880071;29;20359;-81
2024/03/24 14:23:46;;;;;;;;;;;;;;;12.21;100.00;98799.16;4896869;29;19927;-81
2024/03/24 14:26:11;;;;;;;;;;;;;;;12.19;100.00;98835.59;4898959;29;19966;-81
2024/03/24 14:28:36;;;;;;;;;;;;;;;12.19;100.00;98809.03;4900233;29;19951;-81
2024/03/24 14:31:02;;;;;;;;;;;;;;;12.15;100.00;98800.41;4884102;29;19927;-81
2024/03/24 14:33:27;;;;;;;;;;;;;;;12.19;100.00;98795.75;4899916;29;19923;-81
2024/03/24 14:36:07;;;;;;;;;;;;;;;12.20;100.00;98781.50;4900748;29;19919;-81
2024/03/24 14:38:44;;;;;;;;;;;;;;;12.20;100.00;98785.97;4899262;29;19975;-81
2024/03/24 14:41:20;;;;;;;;;;;;;;;12.20;100.00;98780.66;4900887;29;19931;-81
2024/03/24 14:43:55;;;;;;;;;;;;;;;12.23;100.00;98775.16;4900290;29;19924;-80
2024/03/24 14:46:30;;;;;;;;;;;;;;;12.24;100.00;98776.84;4899924;29;19975;-81
2024/03/24 14:48:55;;;;;;;;;;;;;;;12.19;100.00;98785.13;4899078;29;19927;-81
2024/03/24 14:51:21;;;;;;;;;;;;;;;12.17;100.00;98781.72;4900349;29;19923;-81
2024/03/24 14:53:46;;;;;;;;;;;;;;;12.20;100.00;98776.19;4900220;29;19919;-82
2024/03/24 14:56:11;;;;;;;;;;;;;;;12.20;100.00;98778.00;4900254;29;19923;-82
2024/03/24 14:58:36;;;;;;;;;;;;;;;12.20;100.00;98778.84;4883163;29;20372;-83
2024/03/24 15:01:02;;;;;;;;;;;;;;;12.25;100.00;98771.44;4900178;29;20335;-81
2024/03/24 15:03:27;;;;;;;;;;;;;;;12.24;100.00;98777.72;4898505;29;19968;-81
2024/03/24 15:05:53;;;;;;;;;;;;;;;12.55;100.00;98775.66;4899828;29;20019;-83
2024/03/24 15:08:18;;;;;;;;;;;;;;;12.58;100.00;98764.00;4900065;29;19979;-81
2024/03/24 15:10:43;;;;;;;;;;;;;;;12.39;100.00;98773.19;4899839;29;20268;-82
2024/03/24 15:13:08;;;;;;;;;;;;;;;12.39;100.00;98767.88;4900040;29;19930;-81
2024/03/24 15:15:36;;;;;;;;;;;;;;;12.33;100.00;98761.19;4899838;29;19919;-84
2024/03/24 15:18:01;;;;;;;;;;;;;;;12.33;100.00;98771.81;4899167;29;19936;-80
2024/03/24 15:20:26;;;;;;;;;;;;;;;12.29;100.00;98769.44;4898456;29;19923;-80
2024/03/24 15:22:52;;;;;;;;;;;;;;;12.47;100.00;98765.53;4899636;29;20332;-80
2024/03/24 15:25:18;;;;;;;;;;;;;;;12.41;100.00;98781.88;4882855;29;19998;-82
2024/03/24 15:27:43;;;;;;;;;;;;;;;12.16;100.00;98786.19;4899894;29;20268;-81
2024/03/24 15:30:09;;;;;;;;;;;;;;;11.96;100.00;98771.53;4899692;29;19924;-81
2024/03/24 15:32:34;;;;;;;;;;;;;;;11.87;100.00;98776.56;4899591;29;20013;-81
2024/03/24 15:35:00;;;;;;;;;;;;;;;11.67;100.00;98768.06;4898496;29;19963;-84
2024/03/24 15:37:27;;;;;;;;;;;;;;;11.59;100.00;98765.06;4898224;29;19920;-81
2024/03/24 15:39:52;;;;;;;;;;;;;;;11.52;100.00;98759.28;4898927;29;19922;-82
2024/03/24 15:42:17;;;;;;;;;;;;;;;11.50;100.00;98762.97;4900286;29;19919;-82
2024/03/24 15:44:45;;;;;;;;;;;;;;;11.43;100.00;98760.69;4899886;29;19919;-79
2024/03/24 15:47:11;;;;;;;;;;;;;;;11.50;100.00;98762.97;4899391;29;19920;-81
2024/03/24 15:49:36;;;;;;;;;;;;;;;11.43;100.00;98765.16;4898180;29;20452;-81
2024/03/24 15:52:02;;;;;;;;;;;;;;;11.33;100.00;98759.59;4899356;29;19958;-81
2024/03/24 15:54:28;;;;;;;;;;;;;;;11.30;100.00;98765.09;4882634;29;20011;-81
2024/03/24 15:56:56;;;;;;;;;;;;;;;11.28;100.00;98772.28;4898334;29;19920;-82
2024/03/24 15:59:22;;;;;;;;;;;;;;;11.20;100.00;98770.09;4899596;29;19963;-82
2024/03/24 16:02:06;;;;;;;;;;;;;;;11.20;100.00;98775.41;4899282;29;20369;-82
2024/03/24 16:04:33;;;;;;;;;;;;;;;11.16;100.00;98770.38;4898139;29;21383;-82
2024/03/24 16:06:59;;;;;;;;;;;;;;;11.11;100.00;98775.13;4899565;29;20302;-81
2024/03/24 16:09:29;;;;;;;;;;;;;;;11.06;100.00;98778.06;4898544;29;19919;-82
2024/03/24 16:11:58;;;;;;;;;;;;;;;11.05;100.00;98776.34;4881346;29;19931;-83
2024/03/24 16:14:29;;;;;;;;;;;;;;;11.00;100.00;98768.66;4898944;29;20264;-81
2024/03/24 16:16:54;;;;;;;;;;;;;;;10.97;100.00;98773.31;4899040;29;19926;-82
2024/03/24 16:19:21;;;;;;;;;;;;;;;11.03;100.00;98781.72;4897459;29;20299;-83
2024/03/24 16:21:47;;;;;;;;;;;;;;;10.99;100.00;98777.56;4897863;29;19923;-81
2024/03/24 16:24:12;;;;;;;;;;;;;;;11.00;100.00;98787.22;4898764;29;20335;-80
2024/03/24 16:26:37;;;;;;;;;;;;;;;10.95;100.00;98783.16;4898667;29;20053;-82
2024/03/24 16:29:03;;;;;;;;;;;;;;;10.93;100.00;98783.25;4898290;29;19999;-82
2024/03/24 16:31:28;;;;;;;;;;;;;;;10.93;100.00;98777.06;4881825;29;19923;-83
2024/03/24 16:33:54;;;;;;;;;;;;;;;10.92;100.00;98786.81;4897005;29;19919;-82
2024/03/24 16:36:20;;;;;;;;;;;;;;;10.89;100.00;98787.00;4898906;29;20459;-81
2024/03/24 16:38:45;;;;;;;;;;;;;;;10.92;100.00;98781.53;4898021;29;19920;-82
2024/03/24 16:41:11;;;;;;;;;;;;;;;10.96;100.00;98780.41;4898242;29;20378;-81
2024/03/24 16:43:36;;;;;;;;;;;;;;;10.96;100.00;98788.34;4898018;29;20018;-82
2024/03/24 16:46:01;;;;;;;;;;;;;;;10.92;100.00;98793.94;4898067;29;19923;-82
2024/03/24 16:48:27;;;;;;;;;;;;;;;10.96;100.00;98783.06;4895530;29;19924;-82
2024/03/24 16:50:52;;;;;;;;;;;;;;;11.05;100.00;98777.19;4897960;29;19939;-81
2024/03/24 16:53:20;;;;;;;;;;;;;;;10.98;100.00;98778.50;4898172;29;19920;-82
2024/03/24 16:55:46;;;;;;;;;;;;;;;10.92;100.00;98776.22;4895666;29;20014;-82
2024/03/24 16:58:11;;;;;;;;;;;;;;;10.93;100.00;98788.53;4897767;29;20408;-81
2024/03/24 17:00:42;;;;;;;;;;;;;;;11.00;100.00;98789.03;4897870;29;19919;-82
2024/03/24 17:03:08;;;;;;;;;;;;;;;10.99;100.00;98800.56;4897775;29;19927;-82
2024/03/24 17:05:33;;;;;;;;;;;;;;;11.00;100.00;98815.53;4879472;29;19931;-80
2024/03/24 17:07:58;;;;;;;;;;;;;;;10.95;100.00;98818.44;4897743;29;19924;-82
2024/03/24 17:10:24;;;;;;;;;;;;;;;10.94;100.00;98819.38;4897594;29;19986;-82
2024/03/24 17:12:51;;;;;;;;;;;;;;;10.89;100.00;98816.16;4897509;29;19919;-82
2024/03/24 17:15:17;;;;;;;;;;;;;;;10.89;100.00;98824.94;4897188;29;19920;-83
2024/03/24 17:17:42;;;;;;;;;;;;;;;11.02;100.00;98819.78;4897399;29;19971;-83
2024/03/24 17:20:07;;;;;;;;;;;;;;;10.95;100.00;98813.16;4896166;29;20240;-82
2024/03/24 17:22:33;;;;;;;;;;;;;;;10.94;100.00;98816.72;4880316;29;19926;-85
2024/03/24 17:24:58;;;;;;;;;;;;;;;10.93;100.00;98823.00;4897290;29;19924;-81
2024/03/24 17:27:23;;;;;;;;;;;;;;;10.88;100.00;98825.91;4880374;29;19919;-81
2024/03/24 17:29:49;;;;;;;;;;;;;;;10.94;100.00;98823.84;4880395;29;19931;-81
2024/03/24 17:32:15;;;;;;;;;;;;;;;10.91;100.00;98822.22;4880351;29;20449;-83
2024/03/24 17:34:40;;;;;;;;;;;;;;;10.94;100.00;98819.38;4879209;29;19920;-86
2024/03/24 17:37:06;;;;;;;;;;;;;;;10.95;100.00;98828.22;4896889;29;20359;-81
2024/03/24 17:39:31;;;;;;;;;;;;;;;10.92;100.00;98810.69;4880378;29;19919;-83
2024/03/24 17:41:56;;;;;;;;;;;;;;;11.06;100.00;98821.31;4896761;29;19974;-81
2024/03/24 17:44:22;;;;;;;;;;;;;;;11.31;100.00;98813.66;4897026;29;20315;-82
2024/03/24 17:46:47;;;;;;;;;;;;;;;11.17;100.00;98833.03;4880171;29;19926;-81
2024/03/24 17:49:13;;;;;;;;;;;;;;;11.12;100.00;98825.41;4895794;29;19930;-83
2024/03/24 17:51:38;;;;;;;;;;;;;;;11.08;100.00;98832.66;4896770;29;19993;-83
2024/03/24 17:54:03;;;;;;;;;;;;;;;11.01;100.00;98834.00;4896694;29;20247;-84
2024/03/24 17:56:28;;;;;;;;;;;;;;;10.98;100.00;98835.97;4897075;29;20294;-83
2024/03/24 17:58:54;;;;;;;;;;;;;;;10.97;100.00;98840.41;4896937;29;20407;-87
2024/03/24 18:01:19;;;;;;;;;;;;;;;10.97;100.00;98840.41;4879088;29;19986;-83
2024/03/24 18:03:45;;;;;;;;;;;;;;;10.96;100.00;98845.78;4878805;29;19923;-83
2024/03/24 18:06:11;;;;;;;;;;;;;;;10.93;100.00;98845.97;4879740;29;20367;-83
2024/03/24 18:11:20;;;;;;;;;;;;;;;10.84;100.00;98850.03;4896575;29;19927;-83
2024/03/24 18:13:45;;;;;;;;;;;;;;;10.80;100.00;98856.44;4896748;29;19924;-82
2024/03/24 18:16:11;;;;;;;;;;;;;;;10.74;100.00;98852.38;4896717;29;19971;-85
2024/03/24 18:18:36;;;;;;;;;;;;;;;10.70;100.00;98861.44;4895509;29;20435;-82
2024/03/24 18:21:04;;;;;;;;;;;;;;;10.67;100.00;98856.31;4896530;29;20010;-82
2024/03/24 18:23:29;;;;;;;;;;;;;;;10.58;100.00;98863.00;4896595;29;19935;-82
2024/03/24 18:25:55;;;;;;;;;;;;;;;10.52;100.00;98860.72;4896697;29;19923;-85
2024/03/24 18:28:22;;;;;;;;;;;;;;;10.47;100.00;98849.53;4896428;29;20252;-82
2024/03/24 18:30:48;;;;;;;;;;;;;;;10.46;100.00;98853.94;4896534;29;19935;-83
2024/03/24 18:33:13;;;;;;;;;;;;;;;10.43;100.00;98853.28;4878576;29;19927;-84
2024/03/24 18:35:38;;;;;;;;;;;;;;;10.46;100.00;98876.94;4896498;29;20280;-83
2024/03/24 18:38:07;;;;;;;;;;;;;;;10.46;100.00;98877.78;4896236;29;19932;-84
2024/03/24 18:40:32;;;;;;;;;;;;;;;10.55;100.00;98868.47;4879642;29;19923;-81
2024/03/24 18:42:59;;;;;;;;;;;;;;;10.59;100.00;98874.44;4896535;29;19923;-80
2024/03/24 18:45:25;;;;;;;;;;;;;;;10.59;100.00;98885.88;4896447;29;19958;-85
2024/03/24 18:47:50;;;;;;;;;;;;;;;10.57;100.00;98884.28;4879544;29;19971;-82
2024/03/24 18:50:15;;;;;;;;;;;;;;;10.67;100.00;98888.97;4895070;29;19923;-81
2024/03/24 18:52:43;;;;;;;;;;;;;;;10.75;100.00;98896.47;4896683;29;19919;-81
2024/03/24 18:55:08;;;;;;;;;;;;;;;10.82;100.00;98896.97;4879052;29;19928;-83
2024/03/24 18:57:34;;;;;;;;;;;;;;;10.86;100.00;98895.84;4896231;29;20090;-80
2024/03/24 18:59:59;;;;;;;;;;;;;;;10.98;100.00;98894.28;4896361;29;19923;-84
2024/03/24 19:02:24;;;;;;;;;;;;;;;11.12;100.00;98898.75;4896292;29;19926;-80
2024/03/24 19:04:50;;;;;;;;;;;;;;;11.11;100.00;98900.56;4878077;29;19927;-83
2024/03/24 19:07:16;;;;;;;;;;;;;;;11.18;100.00;98909.00;4879254;29;19920;-83
2024/03/24 19:09:41;;;;;;;;;;;;;;;11.23;100.00;98906.94;4896313;29;20390;-83
2024/03/24 19:12:06;;;;;;;;;;;;;;;11.31;100.00;98906.47;4881651;29;19919;-89
2024/03/24 19:14:32;;;;;;;;;;;;;;;11.42;100.00;98911.97;4882859;29;19926;-88
2024/03/24 19:16:57;;;;;;;;;;;;;;;11.48;100.00;98910.78;4899569;29;19919;-82
2024/03/24 19:19:23;;;;;;;;;;;;;;;11.56;100.00;98909.34;4898492;29;19923;-82
2024/03/24 19:21:48;;;;;;;;;;;;;;;11.61;100.00;98917.03;4898881;29;19924;-83
2024/03/24 19:24:13;;;;;;;;;;;;;;;11.55;100.00;98918.28;4899246;29;19958;-83
2024/03/24 19:26:39;;;;;;;;;;;;;;;11.62;100.00;98914.28;4899473;29;20018;-82
2024/03/24 19:29:04;;;;;;;;;;;;;;;11.66;100.00;98922.91;4882633;29;20018;-82
2024/03/24 19:31:30;;;;;;;;;;;;;;;11.67;100.00;98921.97;4899625;29;19944;-84
2024/03/24 19:33:55;;;;;;;;;;;;;;;11.82;100.00;98920.16;4898159;29;19961;-82
2024/03/24 19:36:21;;;;;;;;;;;;;;;11.00;100.00;98918.91;4899400;29;19983;-83
2024/03/24 19:38:46;;;;;;;;;;;;;;;10.62;100.00;98914.84;4882502;29;19919;-81
2024/03/24 19:41:11;;;;;;;;;;;;;;;10.31;100.00;98905.97;4899309;29;19923;-82
2024/03/24 19:43:38;;;;;;;;;;;;;;;10.20;100.00;98916.28;4882242;29;20022;-81
2024/03/24 19:46:03;;;;;;;;;;;;;;;10.14;100.00;98911.34;4899275;29;19923;-82
2024/03/24 19:48:29;;;;;;;;;;;;;;;10.00;100.00;98910.31;4898088;29;19942;-88
2024/03/24 19:50:54;;;;;;;;;;;;;;;9.90;100.00;98911.72;4882076;29;19919;-84
2024/03/24 19:53:19;;;;;;;;;;;;;;;9.82;100.00;98913.94;4899007;29;20425;-81
2024/03/24 19:55:44;;;;;;;;;;;;;;;9.76;100.00;98912.47;4899538;29;20387;-81
2024/03/24 19:58:10;;;;;;;;;;;;;;;9.75;100.00;98904.63;4899120;29;19919;-81
2024/03/24 20:00:35;;;;;;;;;;;;;;;9.62;100.00;98910.56;4898867;29;19920;-81
2024/03/24 20:03:00;;;;;;;;;;;;;;;9.59;100.00;98913.38;4881850;29;20394;-82
2024/03/24 20:05:26;;;;;;;;;;;;;;;9.56;100.00;98915.34;4897620;29;20263;-80
2024/03/24 20:07:51;;;;;;;;;;;;;;;9.47;100.00;98908.72;4899206;29;19920;-82
2024/03/24 20:10:16;;;;;;;;;;;;;;;9.44;100.00;98920.34;4898833;29;19924;-83
2024/03/24 20:12:43;;;;;;;;;;;;;;;9.37;100.00;98912.78;4881411;29;19919;-83
2024/03/24 20:15:09;;;;;;;;;;;;;;;9.38;100.00;98917.13;4899121;29;19920;-82
2024/03/24 20:17:34;;;;;;;;;;;;;;;9.30;100.00;98916.66;4898722;29;19930;-82
2024/03/24 20:20:00;;;;;;;;;;;;;;;9.25;100.00;98920.44;4897661;29;20011;-82
2024/03/24 20:22:25;;;;;;;;;;;;;;;9.21;100.00;98918.84;4881967;29;19930;-83
2024/03/24 20:24:50;;;;;;;;;;;;;;;9.18;100.00;98921.66;4881779;29;19920;-82
2024/03/24 20:27:16;;;;;;;;;;;;;;;9.20;100.00;98930.34;4881981;29;19971;-83
2024/03/24 20:29:41;;;;;;;;;;;;;;;9.11;100.00;98924.69;4898747;29;19920;-84
2024/03/24 20:32:06;;;;;;;;;;;;;;;9.11;100.00;98925.56;4867696;29;19963;-79
2024/03/24 20:34:31;;;;;;;;;;;;;;;9.02;100.00;98923.38;4897474;29;19926;-83
2024/03/24 20:36:58;;;;;;;;;;;;;;;8.99;100.00;98934.94;4898575;29;20006;-82
2024/03/24 20:39:23;;;;;;;;;;;;;;;9.01;100.00;98929.56;4881528;29;19930;-80
2024/03/24 20:41:48;;;;;;;;;;;;;;;8.91;100.00;98934.47;4898433;29;19928;-82
2024/03/24 20:44:13;;;;;;;;;;;;;;;8.86;100.00;98929.41;4898354;29;19919;-85
2024/03/24 20:46:39;;;;;;;;;;;;;;;8.94;100.00;98925.53;4898260;29;20295;-83
2024/03/24 20:49:08;;;;;;;;;;;;;;;8.88;100.00;98931.97;4896083;29;19967;-81
2024/03/24 20:51:33;;;;;;;;;;;;;;;8.82;100.00;98929.63;4898769;29;19919;-81
2024/03/24 20:53:59;;;;;;;;;;;;;;;8.77;100.00;98937.78;4898199;29;20010;-81
2024/03/24 20:56:26;;;;;;;;;;;;;;;8.75;100.00;98944.09;4897817;29;19931;-81
2024/03/24 20:58:52;;;;;;;;;;;;;;;8.75;100.00;98939.66;4897875;29;19930;-82
2024/03/24 21:01:18;;;;;;;;;;;;;;;8.64;100.00;98940.16;4897905;29;19923;-81
2024/03/24 21:03:46;;;;;;;;;;;;;;;8.68;100.00;98946.16;4896497;29;20319;-82
2024/03/24 21:06:11;;;;;;;;;;;;;;;8.65;100.00;98946.31;4880583;29;19927;-80
2024/03/24 21:08:36;;;;;;;;;;;;;;;8.62;100.00;98949.09;4898033;29;19942;-83
2024/03/24 21:11:02;;;;;;;;;;;;;;;8.63;100.00;98950.81;4881070;29;19919;-83
2024/03/24 21:13:27;;;;;;;;;;;;;;;8.60;100.00;98951.81;4897458;29;20371;-84
2024/03/24 21:15:52;;;;;;;;;;;;;;;8.60;100.00;98951.81;4880630;29;19920;-83
2024/03/24 21:18:17;;;;;;;;;;;;;;;8.52;100.00;98946.91;4896408;29;19919;-83
2024/03/24 21:20:43;;;;;;;;;;;;;;;8.59;100.00;98951.91;4897705;29;20022;-82
2024/03/24 21:23:08;;;;;;;;;;;;;;;8.52;100.00;98952.19;4897356;29;20712;-82
2024/03/24 21:25:35;;;;;;;;;;;;;;;8.58;100.00;98947.53;4880474;29;19927;-81
2024/03/24 21:28:01;;;;;;;;;;;;;;;8.45;100.00;98942.81;4897653;29;20394;-83
2024/03/24 21:30:26;;;;;;;;;;;;;;;8.49;100.00;98947.03;4897432;29;19920;-83
2024/03/24 21:32:52;;;;;;;;;;;;;;;8.44;100.00;98941.13;4880239;29;20084;-81
2024/03/24 21:35:17;;;;;;;;;;;;;;;8.39;100.00;98937.81;4878487;29;19920;-84
2024/03/24 21:43:11;;;;;;;;;;;;;;;8.35;100.00;98936.25;4896965;29;19929;-82
2024/03/24 21:45:37;;;;;;;;;;;;;;;8.37;100.00;98940.50;4897112;29;20283;-87
2024/03/24 21:48:03;;;;;;;;;;;;;;;8.31;100.00;98946.09;4880573;29;19926;-82
2024/03/24 21:50:28;;;;;;;;;;;;;;;8.36;100.00;98945.91;4878854;29;19924;-81
2024/03/24 21:52:54;;;;;;;;;;;;;;;8.32;100.00;98946.97;4897099;29;20375;-80
2024/03/24 21:55:21;;;;;;;;;;;;;;;8.30;100.00;98944.38;4896408;29;19923;-83
2024/03/24 21:57:46;;;;;;;;;;;;;;;8.29;100.00;98947.09;4897034;29;19927;-80
2024/03/24 22:00:12;;;;;;;;;;;;;;;8.28;100.00;98948.00;4896948;29;20299;-81
2024/03/24 22:02:37;;;;;;;;;;;;;;;8.29;100.00;98947.09;4896853;29;20609;-82
2024/03/24 22:05:03;;;;;;;;;;;;;;;8.27;100.00;98949.81;4895990;29;19939;-81
2024/03/24 22:07:29;;;;;;;;;;;;;;;8.23;100.00;98942.94;4879875;29;19951;-82
2024/03/24 22:09:55;;;;;;;;;;;;;;;8.25;100.00;98942.88;4896829;29;19923;-80
2024/03/24 22:12:21;;;;;;;;;;;;;;;8.19;100.00;98947.53;4896170;29;19924;-82